createdAt,value
2018-05-29T00:02:04.259Z,31.90
2018-05-29T00:04:34.521Z,31.43
2018-05-29T00:07:03.727Z,29.20
2018-05-29T00:09:33.387Z,30.37
2018-05-29T00:12:02.349Z,31.13
2018-05-29T00:14:32.783Z,31.40
2018-05-29T00:17:03.076Z,28.43
2018-05-29T00:19:33.266Z,31.17
2018-05-29T00:22:02.977Z,29.70
2018-05-29T00:24:33.240Z,29.63
2018-05-29T00:27:02.371Z,31.03
2018-05-29T00:29:31.285Z,28.57
2018-05-29T00:32:00.213Z,30.20
2018-05-29T00:34:30.276Z,28.53
2018-05-29T00:36:59.223Z,31.17
2018-05-29T00:39:28.139Z,32.40
2018-05-29T00:41:58.128Z,29.30
2018-05-29T00:44:27.070Z,31.77
2018-05-29T00:46:56.396Z,30.40
2018-05-29T00:49:26.078Z,31.27
2018-05-29T00:51:55.821Z,33.83
2018-05-29T00:54:25.876Z,31.07
2018-05-29T00:56:54.833Z,32.90
2018-05-29T00:59:24.236Z,31.17
2018-05-29T01:01:53.918Z,30.63
2018-05-29T01:04:23.245Z,31.03
2018-05-29T01:06:53.357Z,33.10
2018-05-29T01:09:22.277Z,31.60
2018-05-29T01:11:51.209Z,34.77
2018-05-29T01:14:21.515Z,31.33
2018-05-29T01:16:50.235Z,30.50
2018-05-29T01:19:20.521Z,34.30
2018-05-29T01:21:50.003Z,32.60
2018-05-29T01:24:18.927Z,31.73
2018-05-29T01:26:47.852Z,32.60
2018-05-29T01:29:17.941Z,31.93
2018-05-29T01:31:47.766Z,32.80
2018-05-29T01:34:17.083Z,33.53
2018-05-29T01:36:47.153Z,33.43
2018-05-29T01:39:16.192Z,33.83
2018-05-29T01:41:45.091Z,35.73
2018-05-29T01:44:14.419Z,30.60
2018-05-29T01:46:44.730Z,31.40
2018-05-29T01:49:13.439Z,30.73
2018-05-29T01:51:42.769Z,35.63
2018-05-29T01:54:13.063Z,37.17
2018-05-29T01:56:43.125Z,35.53
2018-05-29T01:59:13.192Z,36.60
2018-05-29T02:01:41.893Z,31.33
2018-05-29T02:04:10.835Z,31.97
2018-05-29T02:06:41.273Z,31.67
2018-05-29T02:09:10.225Z,33.37
2018-05-29T02:11:39.130Z,33.77
2018-05-29T02:14:09.225Z,32.93
2018-05-29T02:16:39.263Z,31.97
2018-05-29T02:19:09.328Z,31.37
2018-05-29T02:21:38.253Z,36.70
2018-05-29T02:24:07.579Z,42.17
2018-05-29T02:26:36.521Z,35.20
2018-05-29T02:29:06.272Z,33.97
2018-05-29T02:31:35.182Z,31.60
2018-05-29T02:34:04.111Z,36.37
2018-05-29T02:36:34.174Z,33.30
2018-05-29T02:39:03.871Z,34.47
2018-05-29T02:41:34.289Z,37.27
2018-05-29T02:44:03.229Z,33.20
2018-05-29T02:46:32.189Z,33.47
2018-05-29T02:49:02.877Z,35.70
2018-05-29T02:51:32.203Z,34.80
2018-05-29T02:54:01.909Z,33.20
2018-05-29T02:56:32.035Z,33.93
2018-05-29T02:59:01.737Z,34.60
2018-05-29T03:01:30.664Z,36.50
2018-05-29T03:03:59.605Z,34.13
2018-05-29T03:06:28.520Z,32.90
2018-05-29T03:08:58.964Z,39.40
2018-05-29T03:11:27.881Z,36.60
2018-05-29T03:13:56.798Z,34.70
2018-05-29T03:16:26.518Z,35.27
2018-05-29T03:18:56.245Z,34.97
2018-05-29T03:21:25.153Z,36.93
2018-05-29T03:23:54.067Z,34.90
2018-05-29T03:26:24.397Z,40.50
2018-05-29T03:28:53.107Z,37.53
2018-05-29T03:31:22.795Z,37.57
2018-05-29T03:33:52.855Z,34.40
2018-05-29T03:36:23.139Z,37.50
2018-05-29T03:38:51.851Z,40.20
2018-05-29T03:41:21.183Z,36.57
2018-05-29T03:43:50.104Z,37.87
2018-05-29T03:46:19.042Z,36.33
2018-05-29T03:48:49.475Z,36.47
2018-05-29T03:51:19.234Z,38.60
2018-05-29T03:53:48.891Z,37.20
2018-05-29T03:56:21.554Z,35.73
2018-05-29T03:58:50.469Z,37.30
2018-05-29T04:01:20.761Z,34.03
2018-05-29T04:03:49.467Z,35.87
2018-05-29T04:06:19.169Z,36.40
2018-05-29T04:08:49.240Z,34.03
2018-05-29T04:11:20.848Z,33.67
2018-05-29T04:13:49.763Z,34.90
2018-05-29T04:16:19.843Z,35.23
2018-05-29T04:18:49.147Z,34.67
2018-05-29T04:21:19.439Z,33.07
2018-05-29T04:23:48.555Z,33.97
2018-05-29T04:26:17.479Z,34.00
2018-05-29T04:28:46.435Z,35.73
2018-05-29T04:31:15.761Z,34.70
2018-05-29T04:33:45.837Z,36.00
2018-05-29T04:36:15.175Z,30.97
2018-05-29T04:38:44.483Z,33.33
2018-05-29T04:41:14.581Z,31.33
2018-05-29T04:43:44.331Z,32.70
2018-05-29T04:46:13.989Z,29.50
2018-05-29T04:48:43.321Z,33.20
2018-05-29T04:51:12.253Z,30.57
2018-05-29T04:53:41.203Z,34.20
2018-05-29T04:56:10.531Z,30.73
2018-05-29T04:58:39.474Z,32.20
2018-05-29T05:01:08.786Z,29.37
2018-05-29T05:03:37.729Z,29.20
2018-05-29T05:06:06.651Z,29.87
2018-05-29T05:08:37.098Z,30.30
2018-05-29T05:11:06.021Z,29.40
2018-05-29T05:13:34.964Z,28.70
2018-05-29T05:16:05.027Z,28.00
2018-05-29T05:18:33.965Z,29.13
2018-05-29T05:21:04.029Z,30.00
2018-05-29T05:23:33.005Z,27.53
2018-05-29T05:26:02.675Z,30.95
2018-05-29T05:28:31.609Z,26.80
2018-05-29T05:31:00.533Z,26.93
2018-05-29T05:33:30.818Z,25.93
2018-05-29T05:36:00.291Z,22.93
2018-05-29T05:38:30.019Z,23.40
2018-05-29T05:40:58.925Z,24.03
2018-05-29T05:43:29.229Z,22.40
2018-05-29T05:45:58.740Z,20.30
2018-05-29T05:48:28.083Z,22.37
2018-05-29T05:50:57.417Z,22.60
2018-05-29T05:53:27.550Z,21.97
2018-05-29T05:55:57.617Z,20.73
2018-05-29T05:58:26.979Z,20.33
2018-05-29T06:00:58.685Z,20.10
2018-05-29T06:03:28.788Z,22.00
2018-05-29T06:05:57.745Z,20.10
2018-05-29T06:08:28.055Z,19.17
2018-05-29T06:10:57.539Z,18.10
2018-05-29T06:13:27.953Z,18.47
2018-05-29T06:15:56.886Z,17.73
2018-05-29T06:18:26.230Z,19.83
2018-05-29T06:20:55.915Z,17.40
2018-05-29T06:23:24.963Z,18.03
2018-05-29T06:25:54.645Z,17.63
2018-05-29T06:28:23.598Z,17.40
2018-05-29T06:30:52.530Z,19.07
2018-05-29T06:33:23.790Z,17.90
2018-05-29T06:35:52.586Z,17.07
2018-05-29T06:38:21.584Z,16.33
2018-05-29T06:40:51.664Z,18.17
2018-05-29T06:43:20.614Z,16.77
2018-05-29T06:45:51.009Z,18.23
2018-05-29T06:48:20.822Z,18.00
2018-05-29T06:50:49.736Z,17.93
2018-05-29T06:53:20.053Z,19.57
2018-05-29T06:55:50.105Z,16.30
2018-05-29T06:58:18.807Z,17.07
2018-05-29T07:00:48.827Z,17.87
2018-05-29T07:03:18.255Z,16.67
2018-05-29T07:05:47.929Z,17.10
2018-05-29T07:08:16.864Z,19.47
2018-05-29T07:10:46.547Z,17.77
2018-05-29T07:13:15.549Z,19.07
2018-05-29T07:15:44.471Z,17.10
2018-05-29T07:18:13.409Z,16.40
2018-05-29T07:20:42.341Z,18.30
2018-05-29T07:23:12.650Z,16.73
2018-05-29T07:25:41.377Z,15.63
2018-05-29T07:28:11.082Z,17.67
2018-05-29T07:30:40.005Z,17.67
2018-05-29T07:33:09.028Z,16.87
2018-05-29T07:35:39.185Z,17.43
2018-05-29T07:38:08.135Z,16.60
2018-05-29T07:40:37.042Z,17.83
2018-05-29T07:43:05.983Z,16.30
2018-05-29T07:45:35.013Z,16.97
2018-05-29T07:48:05.097Z,15.67
2018-05-29T07:50:35.451Z,13.80
2018-05-29T07:53:04.182Z,13.73
2018-05-29T07:55:33.865Z,15.10
2018-05-29T07:58:03.579Z,15.70
2018-05-29T08:00:32.936Z,15.97
2018-05-29T08:03:03.072Z,14.43
2018-05-29T08:05:32.032Z,13.67
2018-05-29T08:08:01.369Z,14.37
2018-05-29T08:10:32.767Z,15.03
2018-05-29T08:13:03.032Z,16.60
2018-05-29T08:15:31.739Z,17.17
2018-05-29T08:18:01.425Z,16.07
2018-05-29T08:20:31.712Z,15.47
2018-05-29T08:23:01.172Z,16.30
2018-05-29T08:25:30.129Z,15.50
2018-05-29T08:27:59.061Z,16.97
2018-05-29T08:30:28.399Z,14.93
2018-05-29T08:32:57.334Z,16.63
2018-05-29T08:35:26.261Z,14.60
2018-05-29T08:37:55.991Z,16.97
2018-05-29T08:40:25.680Z,16.20
2018-05-29T08:42:54.598Z,15.50
2018-05-29T08:45:23.570Z,16.90
2018-05-29T08:47:52.481Z,17.13
2018-05-29T08:50:21.416Z,13.90
2018-05-29T08:52:50.358Z,15.53
2018-05-29T08:55:19.730Z,15.27
2018-05-29T08:57:49.432Z,15.17
2018-05-29T09:00:18.386Z,13.83
2018-05-29T09:02:48.085Z,17.00
2018-05-29T09:05:17.418Z,14.70
2018-05-29T09:07:46.361Z,15.57
2018-05-29T09:10:16.807Z,16.17
2018-05-29T09:12:47.223Z,14.97
2018-05-29T09:15:16.959Z,14.20
2018-05-29T09:17:45.875Z,14.77
2018-05-29T09:20:14.809Z,15.97
2018-05-29T09:22:43.769Z,14.17
2018-05-29T09:25:13.459Z,13.90
2018-05-29T09:27:42.518Z,17.27
2018-05-29T09:30:11.421Z,13.03
2018-05-29T09:32:40.603Z,15.10
2018-05-29T09:35:10.337Z,13.73
2018-05-29T09:37:40.621Z,14.50
2018-05-29T09:40:09.347Z,14.07
2018-05-29T09:42:38.290Z,13.63
2018-05-29T09:45:07.225Z,11.60
2018-05-29T09:47:36.161Z,13.27
2018-05-29T09:50:06.439Z,12.73
2018-05-29T09:52:35.205Z,13.33
2018-05-29T09:55:04.116Z,12.33
2018-05-29T09:57:33.045Z,11.63
2018-05-29T10:00:01.997Z,12.77
2018-05-29T10:02:31.678Z,12.37
2018-05-29T10:05:01.383Z,11.77
2018-05-29T10:07:30.715Z,11.37
2018-05-29T10:09:59.630Z,12.47
2018-05-29T10:12:28.675Z,10.13
2018-05-29T10:14:59.089Z,10.63
2018-05-29T10:17:28.505Z,9.93
2018-05-29T10:19:58.828Z,9.87
2018-05-29T10:22:29.740Z,10.13
2018-05-29T10:24:58.657Z,10.07
2018-05-29T10:27:28.950Z,10.57
2018-05-29T10:29:57.644Z,9.53
2018-05-29T10:32:27.369Z,10.13
2018-05-29T10:34:56.368Z,10.37
2018-05-29T10:37:26.422Z,10.10
2018-05-29T10:39:55.325Z,9.73
2018-05-29T10:42:24.261Z,9.80
2018-05-29T10:44:54.295Z,9.50
2018-05-29T10:47:23.625Z,10.00
2018-05-29T10:49:52.668Z,10.60
2018-05-29T10:52:22.960Z,10.30
2018-05-29T10:54:52.188Z,9.30
2018-05-29T10:57:23.182Z,9.23
2018-05-29T10:59:51.915Z,9.63
2018-05-29T11:02:22.159Z,8.50
2018-05-29T11:04:50.882Z,8.80
2018-05-29T11:07:21.162Z,8.47
2018-05-29T11:09:50.654Z,9.27
2018-05-29T11:12:20.905Z,8.53
2018-05-29T11:14:50.368Z,8.93
2018-05-29T11:17:20.650Z,9.73
2018-05-29T11:19:50.496Z,8.90
2018-05-29T11:22:20.745Z,9.70
2018-05-29T11:24:49.858Z,8.40
2018-05-29T11:27:20.142Z,9.70
2018-05-29T11:29:49.986Z,9.83
2018-05-29T11:32:20.278Z,10.53
2018-05-29T11:34:49.744Z,9.60
2018-05-29T11:37:20.025Z,9.23
2018-05-29T11:39:49.883Z,8.83
2018-05-29T11:42:19.580Z,9.40
2018-05-29T11:44:48.477Z,9.10
2018-05-29T11:47:17.416Z,8.83
2018-05-29T11:49:46.712Z,8.27
2018-05-29T11:52:17.024Z,9.60
2018-05-29T11:54:45.745Z,8.20
2018-05-29T11:57:14.671Z,8.83
2018-05-29T11:59:44.952Z,9.10
2018-05-29T12:02:14.123Z,8.53
2018-05-29T12:04:44.395Z,9.10
2018-05-29T12:07:13.132Z,7.77
2018-05-29T12:09:43.430Z,7.70
2018-05-29T12:12:19.294Z,7.60
2018-05-29T12:14:48.422Z,9.23
2018-05-29T12:17:17.332Z,8.87
2018-05-29T12:19:46.254Z,8.97
2018-05-29T12:22:15.196Z,8.23
2018-05-29T12:24:44.479Z,8.90
2018-05-29T12:27:14.780Z,8.93
2018-05-29T12:29:44.990Z,8.40
2018-05-29T12:32:15.241Z,7.87
2018-05-29T12:34:45.256Z,7.73
2018-05-29T12:37:14.546Z,7.50
2018-05-29T12:39:44.963Z,6.77
2018-05-29T12:42:14.282Z,7.83
2018-05-29T12:44:44.720Z,7.50
2018-05-29T12:47:14.392Z,7.87
2018-05-29T12:49:44.733Z,7.07
2018-05-29T12:52:13.422Z,7.53
2018-05-29T12:54:43.688Z,6.70
2018-05-29T12:57:12.383Z,6.93
2018-05-29T12:59:41.328Z,6.67
2018-05-29T13:02:10.242Z,7.33
2018-05-29T13:04:39.158Z,7.10
2018-05-29T13:07:08.507Z,6.07
2018-05-29T13:09:38.212Z,7.17
2018-05-29T13:12:08.629Z,6.00
2018-05-29T13:14:38.336Z,5.60
2018-05-29T13:17:08.405Z,6.40
2018-05-29T13:19:38.792Z,5.80
2018-05-29T13:22:08.486Z,6.30
2018-05-29T13:24:37.402Z,6.40
2018-05-29T13:27:06.427Z,6.80
2018-05-29T13:29:36.184Z,6.37
2018-05-29T13:32:05.482Z,6.70
2018-05-29T13:34:35.184Z,6.40
2018-05-29T13:37:05.430Z,6.40
2018-05-29T13:39:34.916Z,5.73
2018-05-29T13:42:05.319Z,7.40
2018-05-29T13:44:34.252Z,6.67
2018-05-29T13:47:03.915Z,7.00
2018-05-29T13:49:33.280Z,6.93
2018-05-29T13:52:02.956Z,6.40
2018-05-29T13:54:32.624Z,6.67
2018-05-29T13:57:01.557Z,6.70
2018-05-29T13:59:31.604Z,7.00
2018-05-29T14:02:01.296Z,7.20
2018-05-29T14:04:30.202Z,7.53
2018-05-29T14:07:00.473Z,6.70
2018-05-29T14:09:29.167Z,7.10
2018-05-29T14:11:59.460Z,6.50
2018-05-29T14:14:29.509Z,6.80
2018-05-29T14:16:59.576Z,5.63
2018-05-29T14:19:29.602Z,6.50
2018-05-29T14:21:59.653Z,6.30
2018-05-29T14:24:29.700Z,5.57
2018-05-29T14:26:59.771Z,5.73
2018-05-29T14:29:29.803Z,5.27
2018-05-29T14:31:58.511Z,5.53
2018-05-29T14:34:28.768Z,5.60
2018-05-29T14:36:57.473Z,5.90
2018-05-29T14:39:26.371Z,6.30
2018-05-29T14:41:55.387Z,6.50
2018-05-29T14:44:24.678Z,6.23
2018-05-29T14:46:54.948Z,6.17
2018-05-29T14:49:24.426Z,6.70
2018-05-29T14:51:53.804Z,6.37
2018-05-29T14:54:24.162Z,5.63
2018-05-29T14:56:53.642Z,6.37
2018-05-29T14:59:23.918Z,7.03
2018-05-29T15:01:52.647Z,6.03
2018-05-29T15:04:22.920Z,6.07
2018-05-29T15:06:52.446Z,6.23
2018-05-29T15:09:21.790Z,6.50
2018-05-29T15:11:51.458Z,6.47
2018-05-29T15:14:20.388Z,6.53
2018-05-29T15:16:50.438Z,6.33
2018-05-29T15:19:19.762Z,6.50
2018-05-29T15:21:48.690Z,6.83
2018-05-29T15:24:18.949Z,7.00
2018-05-29T15:26:48.445Z,6.03
2018-05-29T15:29:17.390Z,6.30
2018-05-29T15:31:46.752Z,6.40
2018-05-29T15:34:16.053Z,6.47
2018-05-29T15:36:44.974Z,6.40
2018-05-29T15:39:14.658Z,5.43
2018-05-29T15:41:44.388Z,6.80
2018-05-29T15:44:14.639Z,8.03
2018-05-29T15:46:44.129Z,7.10
2018-05-29T15:49:13.804Z,6.97
2018-05-29T15:51:43.236Z,6.40
2018-05-29T15:54:13.480Z,6.13
2018-05-29T15:56:42.588Z,7.20
2018-05-29T15:59:11.900Z,6.77
2018-05-29T16:01:41.961Z,6.40
2018-05-29T16:04:11.634Z,6.47
2018-05-29T16:06:40.546Z,6.23
2018-05-29T16:09:09.492Z,6.60
2018-05-29T16:11:38.408Z,6.27
2018-05-29T16:14:07.382Z,6.90
2018-05-29T16:16:37.158Z,5.70
2018-05-29T16:19:06.827Z,6.87
2018-05-29T16:21:36.668Z,6.10
2018-05-29T16:24:05.601Z,10.57
2018-05-29T16:26:34.512Z,8.60
2018-05-29T16:29:03.430Z,7.07
2018-05-29T16:31:33.698Z,6.60
2018-05-29T16:34:02.384Z,8.50
2018-05-29T16:36:32.060Z,8.30
2018-05-29T16:39:01.776Z,8.73
2018-05-29T16:41:32.044Z,7.90
2018-05-29T16:44:01.534Z,6.63
2018-05-29T16:46:31.580Z,6.90
2018-05-29T16:49:00.956Z,6.97
2018-05-29T16:51:30.236Z,9.27
2018-05-29T16:53:59.590Z,7.80
2018-05-29T16:56:29.891Z,7.93
2018-05-29T16:58:58.560Z,7.63
2018-05-29T17:01:27.491Z,8.27
2018-05-29T17:03:57.204Z,8.03
2018-05-29T17:06:27.259Z,7.53
2018-05-29T17:08:56.177Z,9.20
2018-05-29T17:11:25.091Z,7.93
2018-05-29T17:13:55.368Z,8.33
2018-05-29T17:16:24.064Z,8.53
2018-05-29T17:18:53.008Z,9.50
2018-05-29T17:21:22.678Z,8.40
2018-05-29T17:23:51.600Z,8.90
2018-05-29T17:26:21.642Z,9.77
2018-05-29T17:28:51.349Z,10.20
2018-05-29T17:31:21.788Z,9.03
2018-05-29T17:33:51.126Z,10.33
2018-05-29T17:36:20.044Z,10.00
2018-05-29T17:38:49.376Z,8.13
2018-05-29T17:41:18.286Z,9.00
2018-05-29T17:43:47.208Z,8.00
2018-05-29T17:46:17.256Z,8.40
2018-05-29T17:48:47.550Z,7.97
2018-05-29T17:51:17.744Z,7.60
2018-05-29T17:53:47.428Z,8.07
2018-05-29T17:56:17.519Z,8.20
2018-05-29T17:58:47.738Z,6.93
2018-05-29T18:01:17.945Z,6.57
2018-05-29T18:03:48.216Z,6.07
2018-05-29T18:06:16.912Z,5.70
2018-05-29T18:08:46.970Z,6.90
2018-05-29T18:11:17.246Z,7.20
2018-05-29T18:13:47.296Z,6.87
2018-05-29T18:16:16.104Z,7.67
2018-05-29T18:18:45.016Z,7.00
2018-05-29T18:21:15.282Z,5.47
2018-05-29T18:23:45.340Z,5.33
2018-05-29T18:26:15.422Z,5.70
2018-05-29T18:28:45.246Z,5.77
2018-05-29T18:31:14.206Z,6.07
2018-05-29T18:33:44.793Z,6.07
2018-05-29T18:36:14.852Z,7.23
2018-05-29T18:38:43.560Z,6.90
2018-05-29T18:41:12.514Z,6.43
2018-05-29T18:43:42.778Z,5.27
2018-05-29T18:46:11.498Z,5.17
2018-05-29T18:48:41.768Z,7.87
2018-05-29T18:51:10.498Z,7.60
2018-05-29T18:53:40.183Z,6.70
2018-05-29T18:56:09.496Z,6.20
2018-05-29T18:58:38.798Z,8.33
2018-05-29T19:01:09.060Z,6.50
2018-05-29T19:03:38.164Z,11.23
2018-05-29T19:06:07.482Z,8.50
2018-05-29T19:08:37.759Z,6.37
2018-05-29T19:11:07.803Z,6.33
2018-05-29T19:13:37.867Z,6.83
2018-05-29T19:16:06.960Z,6.93
2018-05-29T19:18:37.230Z,7.47
2018-05-29T19:21:06.727Z,8.03
2018-05-29T19:23:35.641Z,7.90
2018-05-29T19:26:04.568Z,8.60
2018-05-29T19:28:34.276Z,9.50
2018-05-29T19:31:04.329Z,7.73
2018-05-29T19:33:33.236Z,9.23
2018-05-29T19:36:02.168Z,9.60
2018-05-29T19:38:31.578Z,9.10
2018-05-29T19:41:00.505Z,9.67
2018-05-29T19:43:30.754Z,8.77
2018-05-29T19:45:59.476Z,7.23
2018-05-29T19:48:29.730Z,11.30
2018-05-29T19:50:59.891Z,7.47
2018-05-29T19:53:28.508Z,9.67
2018-05-29T19:55:58.939Z,9.80
2018-05-29T19:58:28.615Z,9.50
2018-05-29T20:00:57.575Z,8.53
2018-05-29T20:03:31.008Z,9.83
2018-05-29T20:06:01.343Z,9.07
2018-05-29T20:08:31.529Z,9.33
2018-05-29T20:11:01.832Z,7.73
2018-05-29T20:13:31.892Z,8.77
2018-05-29T20:16:02.121Z,9.23
2018-05-29T20:18:32.403Z,7.90
2018-05-29T20:21:02.436Z,9.70
2018-05-29T20:23:31.538Z,9.63
2018-05-29T20:26:00.531Z,9.83
2018-05-29T20:28:30.539Z,8.73
2018-05-29T20:31:00.800Z,7.30
2018-05-29T20:33:30.863Z,6.00
2018-05-29T20:35:59.555Z,4.33
2018-05-29T20:38:28.499Z,5.70
2018-05-29T20:40:58.162Z,4.87
2018-05-29T20:43:27.848Z,5.60
2018-05-29T20:45:57.594Z,5.23
2018-05-29T20:48:26.938Z,5.57
2018-05-29T20:50:56.597Z,4.90
2018-05-29T20:53:25.565Z,5.43
2018-05-29T20:55:54.482Z,4.73
2018-05-29T20:58:24.927Z,5.83
2018-05-29T21:00:54.550Z,4.60
2018-05-29T21:03:23.579Z,5.50
2018-05-29T21:05:52.915Z,5.77
2018-05-29T21:08:23.146Z,6.83
2018-05-29T21:10:53.635Z,5.40
2018-05-29T21:13:22.556Z,6.17
2018-05-29T21:15:51.473Z,6.33
2018-05-29T21:18:20.405Z,5.97
2018-05-29T21:20:50.690Z,6.00
2018-05-29T21:23:20.741Z,6.50
2018-05-29T21:25:50.228Z,6.70
2018-05-29T21:28:19.141Z,6.60
2018-05-29T21:30:49.632Z,6.57
2018-05-29T21:33:19.304Z,6.03
2018-05-29T21:35:49.000Z,5.57
2018-05-29T21:38:17.912Z,6.33
2018-05-29T21:40:47.624Z,5.13
2018-05-29T21:43:18.056Z,7.07
2018-05-29T21:45:47.859Z,6.67
2018-05-29T21:48:17.877Z,6.93
2018-05-29T21:50:48.168Z,7.10
2018-05-29T21:53:17.992Z,7.70
2018-05-29T21:55:47.707Z,7.17
2018-05-29T21:58:16.602Z,8.27
2018-05-29T22:00:46.307Z,8.47
2018-05-29T22:03:16.698Z,7.83
2018-05-29T22:05:45.620Z,9.10
2018-05-29T22:08:15.874Z,7.50
2018-05-29T22:10:44.578Z,8.33
2018-05-29T22:13:13.868Z,7.80
2018-05-29T22:15:42.810Z,8.93
2018-05-29T22:18:13.080Z,9.40
2018-05-29T22:20:42.542Z,9.37
2018-05-29T22:23:12.248Z,9.70
2018-05-29T22:25:41.152Z,9.03
2018-05-29T22:28:10.468Z,9.97
2018-05-29T22:30:40.233Z,9.07
2018-05-29T22:33:09.467Z,10.40
2018-05-29T22:35:39.772Z,10.10
2018-05-29T22:38:09.798Z,10.47
2018-05-29T22:40:40.028Z,10.47
2018-05-29T22:43:10.113Z,9.23
2018-05-29T22:45:39.024Z,10.43
2018-05-29T22:48:07.938Z,9.33
2018-05-29T22:50:37.326Z,9.30
2018-05-29T22:53:06.259Z,9.70
2018-05-29T22:55:35.292Z,10.30
2018-05-29T22:58:04.208Z,8.70
2018-05-29T23:00:33.503Z,7.93
2018-05-29T23:03:02.421Z,12.80
2018-05-29T23:05:32.092Z,9.57
2018-05-29T23:08:01.425Z,12.00
2018-05-29T23:10:30.345Z,11.97
2018-05-29T23:13:00.417Z,12.00
2018-05-29T23:15:30.690Z,10.63
2018-05-29T23:18:00.757Z,10.10
2018-05-29T23:20:29.470Z,10.53
2018-05-29T23:22:59.525Z,9.43
2018-05-29T23:25:29.190Z,9.97
2018-05-29T23:27:58.512Z,10.53
2018-05-29T23:30:27.434Z,11.13
2018-05-29T23:32:56.376Z,11.57
2018-05-29T23:35:25.296Z,12.17
2018-05-29T23:37:55.014Z,11.13
2018-05-29T23:40:24.003Z,11.10
2018-05-29T23:42:53.331Z,12.60
2018-05-29T23:45:23.392Z,13.50
2018-05-29T23:47:52.338Z,11.97
2018-05-29T23:50:21.277Z,11.77
2018-05-29T23:52:50.603Z,10.97
2018-05-29T23:55:20.297Z,12.17
2018-05-29T23:57:50.373Z,11.93
